TimeEST,TemperatureF,Dew PointF,Humidity,Sea Level PressureIn,VisibilityMPH,Wind Direction,Wind SpeedMPH,Gust SpeedMPH,PrecipitationIn,Events,Conditions,WindDirDegrees,DateUTC
12:15 AM,59.0,58.1,97,30.05,10.0,SSE,5.8,-,N/A,,Overcast,160,2013-01-16 05:15:00
12:35 AM,59.0,58.1,97,30.05,10.0,SSE,8.1,-,N/A,,Overcast,150,2013-01-16 05:35:00
1:15 AM,57.7,56.8,97,30.03,10.0,SSE,5.8,-,N/A,,Overcast,160,2013-01-16 06:15:00
1:35 AM,57.4,56.5,97,30.04,10.0,SSE,4.6,-,N/A,,Overcast,160,2013-01-16 06:35:00
1:55 AM,56.8,55.9,97,30.05,10.0,SSE,5.8,-,N/A,,Overcast,160,2013-01-16 06:55:00
2:15 AM,56.3,55.4,97,30.05,10.0,South,3.5,-,N/A,,Overcast,170,2013-01-16 07:15:00
2:35 AM,56.3,55.4,97,30.04,10.0,South,3.5,-,N/A,,Overcast,170,2013-01-16 07:35:00
2:55 AM,55.4,54.5,97,30.03,10.0,South,4.6,-,N/A,,Overcast,180,2013-01-16 07:55:00
3:15 AM,54.1,53.2,97,30.03,10.0,South,5.8,-,N/A,,Overcast,170,2013-01-16 08:15:00
3:35 AM,53.2,52.3,97,30.02,10.0,South,6.9,-,N/A,,Overcast,180,2013-01-16 08:35:00
3:55 AM,52.2,51.1,96,30.02,10.0,South,5.8,-,N/A,,Overcast,170,2013-01-16 08:55:00
4:15 AM,51.6,50.4,95,30.01,10.0,South,6.9,-,N/A,,Mostly Cloudy,180,2013-01-16 09:15:00
4:35 AM,49.5,48.4,96,30.01,10.0,South,5.8,-,N/A,,Clear,190,2013-01-16 09:35:00
4:55 AM,48.4,47.3,96,30.01,10.0,SSW,4.6,-,N/A,,Scattered Clouds,200,2013-01-16 09:55:00
5:15 AM,45.1,44.1,96,30.01,10.0,South,4.6,-,N/A,,Scattered Clouds,190,2013-01-16 10:15:00
5:35 AM,45.0,43.9,96,30.00,10.0,South,6.9,-,N/A,,Mostly Cloudy,190,2013-01-16 10:35:00
5:55 AM,45.5,43.9,94,30.01,10.0,SSW,6.9,-,N/A,,Mostly Cloudy,200,2013-01-16 10:55:00
6:15 AM,45.9,43.9,93,30.01,10.0,SSW,5.8,-,N/A,,Mostly Cloudy,200,2013-01-16 11:15:00
6:35 AM,46.4,44.1,92,30.01,10.0,SSW,6.9,-,N/A,,Mostly Cloudy,210,2013-01-16 11:35:00
6:55 AM,46.8,44.8,93,30.01,10.0,SSW,9.2,16.1,N/A,,Overcast,210,2013-01-16 11:55:00
7:15 AM,47.3,45.1,92,30.02,10.0,SSW,9.2,-,N/A,,Overcast,210,2013-01-16 12:15:00
7:35 AM,47.3,45.0,92,30.02,10.0,SSW,9.2,-,N/A,,Overcast,210,2013-01-16 12:35:00
7:55 AM,50.0,47.7,92,30.03,10.0,SSW,10.4,-,N/A,,Overcast,200,2013-01-16 12:55:00
8:15 AM,51.6,49.3,92,30.03,10.0,SSW,8.1,-,N/A,,Overcast,200,2013-01-16 13:15:00
8:35 AM,53.4,50.9,91,30.03,10.0,SSW,9.2,-,N/A,,Overcast,200,2013-01-16 13:35:00
8:55 AM,57.4,54.5,90,30.05,10.0,SSW,11.5,-,N/A,,Overcast,200,2013-01-16 13:55:00
9:15 AM,60.4,56.7,87,30.05,10.0,SSW,8.1,-,N/A,,Mostly Cloudy,210,2013-01-16 14:15:00
9:35 AM,62.8,57.2,82,30.04,10.0,SSW,10.4,17.3,N/A,,Scattered Clouds,210,2013-01-16 14:35:00
9:55 AM,62.8,56.3,79,30.04,10.0,SSW,13.8,20.7,N/A,,Clear,200,2013-01-16 14:55:00
10:15 AM,64.8,56.7,75,30.04,10.0,SSW,16.1,20.7,N/A,,Clear,210,2013-01-16 15:15:00
10:35 AM,66.9,57.2,71,30.04,10.0,SSW,15.0,21.9,N/A,,Clear,210,2013-01-16 15:35:00
10:55 AM,68.9,57.4,67,30.03,10.0,SSW,16.1,21.9,N/A,,Scattered Clouds,210,2013-01-16 15:55:00
11:15 AM,70.5,58.5,66,30.02,10.0,SSW,15.0,23.0,N/A,,Scattered Clouds,210,2013-01-16 16:15:00
11:35 AM,72.1,59.7,65,30.00,10.0,South,17.3,21.9,N/A,,Scattered Clouds,190,2013-01-16 16:35:00
11:55 AM,73.4,59.7,62,30.00,10.0,SSW,13.8,20.7,N/A,,Scattered Clouds,210,2013-01-16 16:55:00
12:15 PM,73.4,59.2,61,29.99,10.0,SW,11.5,17.3,N/A,,Scattered Clouds,230,2013-01-16 17:15:00
12:35 PM,73.9,59.2,60,29.98,10.0,SSW,15.0,19.6,N/A,,Scattered Clouds,200,2013-01-16 17:35:00
12:55 PM,75.7,58.1,54,29.97,10.0,SW,10.4,20.7,N/A,,Scattered Clouds,230,2013-01-16 17:55:00
1:15 PM,76.3,58.3,54,29.96,10.0,SW,11.5,17.3,N/A,,Scattered Clouds,220,2013-01-16 18:15:00
1:35 PM,77.4,57.7,51,29.96,10.0,SW,12.7,18.4,N/A,,Scattered Clouds,220,2013-01-16 18:35:00
1:55 PM,77.9,57.4,49,29.95,10.0,SW,10.4,-,N/A,,Scattered Clouds,220,2013-01-16 18:55:00
2:15 PM,77.5,57.0,49,29.95,10.0,SW,5.8,9.2,N/A,,Scattered Clouds,230,2013-01-16 19:15:00
2:35 PM,78.3,57.4,49,29.95,10.0,SW,9.2,-,N/A,,Scattered Clouds,220,2013-01-16 19:35:00
2:55 PM,79.0,57.2,47,29.94,10.0,SSW,10.4,16.1,N/A,,Scattered Clouds,210,2013-01-16 19:55:00
3:15 PM,79.0,57.4,47,29.95,10.0,SSW,8.1,17.3,N/A,,Scattered Clouds,200,2013-01-16 20:15:00
3:35 PM,78.6,56.7,47,29.95,10.0,SW,8.1,-,N/A,,Scattered Clouds,220,2013-01-16 20:35:00
3:55 PM,78.4,56.7,47,29.95,10.0,SSW,6.9,-,N/A,,Scattered Clouds,210,2013-01-16 20:55:00
4:15 PM,78.1,57.0,48,29.96,10.0,SW,4.6,-,N/A,,Scattered Clouds,220,2013-01-16 21:15:00
4:35 PM,77.9,56.7,48,29.96,10.0,SW,4.6,-,N/A,,Scattered Clouds,230,2013-01-16 21:35:00
4:55 PM,76.6,57.2,51,29.96,10.0,SW,4.6,-,N/A,,Scattered Clouds,230,2013-01-16 21:55:00
5:15 PM,74.5,59.0,58,29.97,10.0,North,4.6,-,N/A,,Mostly Cloudy,350,2013-01-16 22:15:00
5:35 PM,70.9,60.4,69,29.99,10.0,North,3.5,-,N/A,,Mostly Cloudy,360,2013-01-16 22:35:00
5:55 PM,68.4,60.8,77,29.99,10.0,North,3.5,-,N/A,,Scattered Clouds,10,2013-01-16 22:55:00
6:15 PM,67.6,60.8,79,30.00,10.0,Calm,Calm,-,N/A,,Scattered Clouds,0,2013-01-16 23:15:00
6:55 PM,65.3,60.3,84,30.00,10.0,Calm,Calm,-,N/A,,Clear,0,2013-01-16 23:55:00
7:15 PM,64.4,59.9,85,30.00,10.0,Calm,Calm,-,N/A,,Clear,0,2013-01-17 00:15:00
7:35 PM,62.8,59.5,89,30.00,10.0,Calm,Calm,-,N/A,,Clear,0,2013-01-17 00:35:00
7:55 PM,61.9,59.0,90,30.00,10.0,Calm,Calm,-,N/A,,Clear,0,2013-01-17 00:55:00
8:15 PM,60.8,58.5,92,30.01,10.0,Calm,Calm,-,N/A,,Clear,0,2013-01-17 01:15:00
8:35 PM,60.6,58.1,91,30.00,10.0,Calm,Calm,-,N/A,,Clear,0,2013-01-17 01:35:00
8:55 PM,59.5,57.9,94,30.00,10.0,Calm,Calm,-,N/A,,Clear,0,2013-01-17 01:55:00
9:15 PM,59.2,57.2,93,30.00,10.0,Calm,Calm,-,N/A,,Clear,0,2013-01-17 02:15:00
9:35 PM,58.6,56.8,94,30.00,10.0,Calm,Calm,-,N/A,,Clear,0,2013-01-17 02:35:00
9:55 PM,57.7,56.3,95,30.00,10.0,Calm,Calm,-,N/A,,Clear,0,2013-01-17 02:55:00
10:15 PM,57.4,56.3,96,30.00,10.0,Calm,Calm,-,N/A,,Clear,0,2013-01-17 03:15:00
10:35 PM,57.2,56.1,96,29.99,10.0,Calm,Calm,-,N/A,,Clear,0,2013-01-17 03:35:00
10:55 PM,57.4,56.3,96,29.98,10.0,Calm,Calm,-,N/A,,Clear,0,2013-01-17 03:55:00
11:15 PM,57.2,55.9,96,29.98,10.0,Calm,Calm,-,N/A,,Clear,0,2013-01-17 04:15:00
11:35 PM,56.8,55.6,96,29.98,10.0,Calm,Calm,-,N/A,,Clear,0,2013-01-17 04:35:00
11:55 PM,56.8,55.6,96,29.98,10.0,SSW,3.5,-,N/A,,Clear,210,2013-01-17 04:55:00